Time;durP1;ratioP1;P1;durP2;ratioP2;P2;SDS_P1;SDS_P2;PMS_P1;PMS_P2;Temp;Humidity;BMP_temperature;BMP_pressure;BME280_temperature;BME280_humidity;BME280_pressure;Samples;Min_cycle;Max_cycle;Signal;HPM_P1;HPM_P2
2022/02/07 00:07:46;;;;;;;2.00;0.40;;;4.60;99.90;;;;;;4903426;29;20199;-91
2022/02/07 00:10:55;;;;;;;2.45;0.75;;;4.70;99.90;;;;;;4920041;29;20235;-91
2022/02/07 00:14:03;;;;;;;;;;;;;;;;;;;;;
2022/02/07 00:19:59;;;;;;;2.20;0.63;;;4.70;99.90;;;;;;4954093;28;20295;-90
2022/02/07 00:26:06;;;;;;;2.15;0.50;;;4.90;99.90;;;;;;4925130;29;20214;-90
2022/02/07 00:32:33;;;;;;;1.92;0.40;;;4.90;99.90;;;;;;4991589;28;20229;-91
2022/02/07 00:41:47;;;;;;;2.40;0.50;;;5.00;99.90;;;;;;4967978;28;20229;-90
2022/02/07 00:50:58;;;;;;;2.20;0.60;;;4.90;99.90;;;;;;4981999;28;20240;-90
2022/02/07 00:53:49;;;;;;;2.60;0.70;;;4.90;99.90;;;;;;4970497;28;20243;-90
2022/02/07 00:56:30;;;;;;;3.30;0.75;;;4.90;99.90;;;;;;4979973;28;20209;-91
2022/02/07 00:59:20;;;;;;;2.88;0.73;;;4.90;99.90;;;;;;4980248;28;20260;-92
2022/02/07 01:02:14;;;;;;;2.33;0.50;;;4.90;99.90;;;;;;4980047;28;20228;-90
2022/02/07 01:05:25;;;;;;;2.30;0.50;;;5.00;99.90;;;;;;4971729;28;20271;-91
2022/02/07 01:12:28;;;;;;;2.60;0.60;;;4.80;99.90;;;;;;4939489;29;20229;-91
2022/02/07 01:15:41;;;;;;;;;;;;;;;;;;;;;
2022/02/07 01:49:03;;;;;;;2.10;0.50;;;5.40;99.90;;;;;;4904214;29;20240;-91
2022/02/07 01:55:48;;;;;;;2.63;0.50;;;5.40;99.90;;;;;;4855106;29;20237;-91
2022/02/07 03:14:46;;;;;;;3.80;0.80;;;5.90;99.90;;;;;;4804492;29;20243;-91
2022/02/07 03:48:42;;;;;;;11.10;1.20;;;5.60;99.90;;;;;;4997923;28;20230;-88
2022/02/07 03:51:09;;;;;;;2.75;0.60;;;3.60;99.90;;;;;;4996938;28;20230;-89
2022/02/07 03:53:36;;;;;;;4.25;0.70;;;3.00;99.90;;;;;;4994199;28;20201;-88
2022/02/07 03:56:03;;;;;;;3.47;0.70;;;3.10;99.90;;;;;;4997225;28;20229;-89
2022/02/07 03:58:30;;;;;;;2.58;0.47;;;3.30;99.90;;;;;;4994700;28;20239;-90
2022/02/07 04:00:57;;;;;;;4.38;0.70;;;3.10;99.90;;;;;;4999156;28;20240;-87
2022/02/07 04:03:27;;;;;;;2.17;0.60;;;3.10;99.90;;;;;;4996264;28;20208;-89
2022/02/07 04:05:56;;;;;;;2.38;0.63;;;3.00;99.90;;;;;;4999508;28;20231;-89
2022/02/07 04:08:29;;;;;;;2.40;0.52;;;2.90;99.90;;;;;;4998336;28;20200;-89
2022/02/07 04:11:01;;;;;;;2.47;0.70;;;3.30;99.90;;;;;;5062018;23;20291;-89
2022/02/07 04:13:30;;;;;;;2.10;0.60;;;3.60;99.90;;;;;;4982298;28;20267;-89
2022/02/07 04:15:58;;;;;;;2.38;0.65;;;3.00;99.90;;;;;;4982105;28;20205;-88
2022/02/07 04:18:28;;;;;;;3.20;0.68;;;3.50;99.90;;;;;;4981948;28;20221;-89
2022/02/07 04:20:57;;;;;;;4.47;0.60;;;3.30;99.90;;;;;;4981480;28;20232;-89
2022/02/07 04:23:24;;;;;;;2.95;0.70;;;3.40;99.90;;;;;;4981896;28;20217;-89
2022/02/07 04:25:54;;;;;;;4.32;0.90;;;2.90;99.90;;;;;;4983291;28;20232;-89
2022/02/07 04:28:22;;;;;;;3.05;0.65;;;3.40;99.90;;;;;;4982865;28;20212;-88
2022/02/07 04:30:49;;;;;;;2.88;0.70;;;3.40;99.90;;;;;;4981260;28;20233;-88
2022/02/07 04:33:16;;;;;;;3.15;0.80;;;3.00;99.90;;;;;;4981088;28;20201;-88
2022/02/07 04:35:46;;;;;;;2.97;0.77;;;3.50;99.90;;;;;;4980422;28;20204;-88
2022/02/07 04:38:15;;;;;;;2.63;0.80;;;3.30;99.90;;;;;;4980435;28;20204;-88
2022/02/07 04:40:42;;;;;;;4.07;0.70;;;3.20;99.90;;;;;;4981630;28;20228;-88
2022/02/07 04:43:12;;;;;;;2.80;0.70;;;3.60;99.90;;;;;;4981471;28;20263;-89
2022/02/07 04:45:53;;;;;;;4.35;0.98;;;3.60;99.90;;;;;;4982068;28;20205;-88
2022/02/07 04:51:27;;;;;;;3.20;1.05;;;3.60;99.90;;;;;;4983695;28;20221;-88
2022/02/07 04:54:12;;;;;;;3.58;0.88;;;3.50;99.90;;;;;;4983582;28;20223;-88
2022/02/07 04:59:29;;;;;;;4.40;0.77;;;3.50;99.90;;;;;;4990099;28;20220;-88
2022/02/07 05:02:07;;;;;;;5.40;0.95;;;3.40;99.90;;;;;;4982451;28;20224;-88
2022/02/07 05:04:39;;;;;;;2.67;0.90;;;3.40;99.90;;;;;;4981169;28;20577;-88
2022/02/07 05:15:26;;;;;;;7.15;1.38;;;3.20;99.90;;;;;;4984184;28;20220;-88
2022/02/07 05:17:53;;;;;;;4.60;0.98;;;3.40;99.90;;;;;;4991670;28;20264;-88
2022/02/07 05:20:20;;;;;;;7.10;1.75;;;3.50;99.90;;;;;;4983344;28;20252;-88
2022/02/07 05:22:47;;;;;;;6.25;1.42;;;3.40;99.90;;;;;;4985862;28;20197;-87
2022/02/07 05:25:15;;;;;;;4.93;1.10;;;3.20;99.90;;;;;;4993757;28;20204;-88
2022/02/07 05:27:42;;;;;;;4.40;1.10;;;3.60;99.90;;;;;;4981584;28;20228;-88
2022/02/07 05:30:10;;;;;;;6.70;1.00;;;3.60;99.90;;;;;;4980573;28;20271;-88
2022/02/07 05:32:37;;;;;;;4.80;0.95;;;3.70;99.90;;;;;;4981327;28;20662;-88
2022/02/07 05:35:04;;;;;;;4.10;1.20;;;3.20;99.90;;;;;;4981636;28;20225;-88
2022/02/07 05:37:33;;;;;;;4.60;0.88;;;3.90;99.90;;;;;;4980259;28;20300;-88
2022/02/07 05:40:10;;;;;;;6.88;1.35;;;3.30;99.90;;;;;;4981118;28;20208;-89
2022/02/07 05:42:39;;;;;;;4.60;1.13;;;3.60;99.90;;;;;;4989467;28;20248;-88
2022/02/07 05:45:07;;;;;;;7.20;1.27;;;3.30;99.90;;;;;;4984445;28;20209;-87
2022/02/07 05:47:35;;;;;;;4.18;1.00;;;3.90;99.90;;;;;;4980824;28;20252;-87
2022/02/07 05:50:03;;;;;;;3.80;1.55;;;3.70;99.90;;;;;;4980702;28;20213;-87
2022/02/07 05:52:30;;;;;;;2.95;0.90;;;3.70;99.90;;;;;;4982141;28;20681;-87
2022/02/07 05:54:57;;;;;;;7.97;1.15;;;3.70;99.90;;;;;;4985675;28;20229;-87
2022/02/07 05:57:27;;;;;;;3.47;1.10;;;3.40;99.90;;;;;;4980545;28;20220;-87
2022/02/07 05:59:55;;;;;;;6.40;1.33;;;3.70;99.90;;;;;;4978854;28;20208;-87
2022/02/07 06:02:22;;;;;;;4.57;1.10;;;4.00;99.90;;;;;;4981076;28;20236;-87
2022/02/07 06:04:49;;;;;;;6.40;1.27;;;3.80;99.90;;;;;;4983401;28;20205;-87
2022/02/07 06:07:19;;;;;;;5.07;1.30;;;4.00;99.90;;;;;;4986050;28;20240;-87
2022/02/07 06:09:46;;;;;;;5.82;1.38;;;3.90;99.90;;;;;;4981876;28;20229;-87
2022/02/07 06:12:13;;;;;;;5.70;1.73;;;3.60;99.90;;;;;;4980338;28;20232;-86
2022/02/07 06:14:43;;;;;;;6.45;1.20;;;4.00;99.90;;;;;;4980522;28;20245;-86
2022/02/07 06:17:11;;;;;;;7.28;1.13;;;4.10;99.90;;;;;;4981307;28;20216;-87
2022/02/07 06:19:38;;;;;;;5.10;1.15;;;4.10;99.90;;;;;;4981368;28;20217;-87
2022/02/07 06:22:06;;;;;;;5.65;1.40;;;4.10;99.90;;;;;;4987967;28;20228;-88
2022/02/07 06:24:33;;;;;;;4.70;1.20;;;4.40;99.90;;;;;;4999343;28;20212;-87
2022/02/07 06:27:00;;;;;;;5.60;1.70;;;3.90;99.90;;;;;;4991120;28;20216;-87
2022/02/07 06:29:27;;;;;;;5.10;1.27;;;3.90;99.90;;;;;;4982934;28;20260;-87
2022/02/07 06:31:54;;;;;;;8.23;1.40;;;3.90;99.90;;;;;;4982217;28;20714;-88
2022/02/07 06:34:23;;;;;;;5.72;1.55;;;3.90;99.90;;;;;;4982685;28;20225;-87
2022/02/07 06:36:50;;;;;;;5.40;1.60;;;4.30;99.90;;;;;;4984351;28;20239;-88
2022/02/07 06:39:17;;;;;;;4.75;1.40;;;4.20;99.90;;;;;;4985918;28;20208;-88
2022/02/07 06:41:46;;;;;;;4.00;0.75;;;4.30;99.90;;;;;;4984206;28;20231;-88
2022/02/07 06:44:13;;;;;;;5.75;1.88;;;4.20;99.90;;;;;;4984175;28;20654;-87
2022/02/07 06:46:40;;;;;;;5.72;1.10;;;4.20;99.90;;;;;;4996464;28;20263;-87
2022/02/07 06:49:07;;;;;;;3.58;1.13;;;4.30;99.90;;;;;;4984452;28;20276;-87
2022/02/07 06:51:36;;;;;;;4.70;1.10;;;4.20;99.90;;;;;;4992700;28;20256;-88
2022/02/07 06:54:03;;;;;;;7.68;2.10;;;4.10;99.90;;;;;;4996265;28;20220;-87
2022/02/07 06:56:32;;;;;;;5.30;1.35;;;4.10;99.90;;;;;;4986238;28;20201;-88
2022/02/07 06:59:00;;;;;;;3.42;0.98;;;4.10;99.90;;;;;;4990827;28;20259;-88
2022/02/07 07:01:36;;;;;;;3.65;1.20;;;3.90;99.90;;;;;;4986422;28;20229;-88
2022/02/07 07:04:03;;;;;;;5.13;1.25;;;3.90;99.90;;;;;;4991622;28;20208;-87
2022/02/07 07:06:29;;;;;;;4.60;1.10;;;3.80;99.90;;;;;;4988491;28;20556;-86
2022/02/07 07:08:58;;;;;;;6.30;1.95;;;4.20;99.90;;;;;;4983867;28;20205;-86
2022/02/07 07:11:27;;;;;;;8.85;1.45;;;4.30;99.90;;;;;;4983812;28;20316;-86
2022/02/07 07:14:00;;;;;;;4.18;1.10;;;4.40;99.90;;;;;;4983448;28;20209;-86
2022/02/07 07:16:40;;;;;;;3.05;1.17;;;4.30;99.90;;;;;;4982399;28;20660;-86
2022/02/07 07:19:07;;;;;;;7.15;1.45;;;4.50;99.90;;;;;;4983176;28;20209;-85
2022/02/07 07:21:34;;;;;;;4.35;1.10;;;4.40;99.90;;;;;;4989807;28;20271;-84
2022/02/07 07:24:03;;;;;;;4.25;1.85;;;4.60;99.90;;;;;;4992253;28;20197;-86
2022/02/07 07:26:31;;;;;;;4.72;1.25;;;4.40;99.90;;;;;;4995487;28;20209;-85
2022/02/07 07:29:01;;;;;;;8.00;1.90;;;4.60;99.90;;;;;;4991412;28;20308;-87
2022/02/07 07:31:28;;;;;;;5.57;1.20;;;4.50;99.90;;;;;;4985953;28;20630;-85
2022/02/07 07:33:55;;;;;;;3.75;0.85;;;4.40;99.90;;;;;;4981322;28;20665;-85
2022/02/07 07:36:22;;;;;;;5.97;2.05;;;4.40;99.90;;;;;;4982436;28;20208;-85
2022/02/07 07:38:50;;;;;;;7.35;1.63;;;4.60;99.90;;;;;;4984199;28;20236;-85
2022/02/07 07:41:19;;;;;;;5.05;1.50;;;4.60;99.90;;;;;;4982508;28;20248;-85
2022/02/07 07:43:48;;;;;;;5.85;1.30;;;4.60;99.90;;;;;;4982594;28;20263;-86
2022/02/07 07:46:25;;;;;;;6.78;2.17;;;4.60;99.90;;;;;;4981661;28;20209;-85
2022/02/07 07:48:58;;;;;;;15.55;1.65;;;4.30;99.90;;;;;;4991830;28;20221;-86
2022/02/07 07:51:34;;;;;;;8.07;1.48;;;4.60;99.90;;;;;;4995469;28;20272;-86
2022/02/07 08:02:19;;;;;;;4.90;1.80;;;4.40;99.90;;;;;;4992557;28;20192;-86
2022/02/07 08:04:48;;;;;;;7.13;2.20;;;4.40;99.90;;;;;;4983723;28;20229;-86
2022/02/07 08:07:19;;;;;;;4.90;1.95;;;4.20;99.90;;;;;;4983568;28;20208;-86
2022/02/07 08:10:09;;;;;;;5.70;1.52;;;4.40;99.90;;;;;;4982798;28;20276;-86
2022/02/07 08:12:39;;;;;;;8.77;2.00;;;4.60;99.90;;;;;;4982311;28;20209;-86
2022/02/07 08:15:07;;;;;;;4.38;1.63;;;4.60;99.90;;;;;;4983586;28;20235;-87
2022/02/07 08:17:34;;;;;;;3.60;1.40;;;4.60;99.90;;;;;;4982618;28;20237;-86
2022/02/07 08:20:01;;;;;;;6.80;2.55;;;4.80;99.90;;;;;;4987618;28;20260;-87
2022/02/07 08:22:28;;;;;;;5.20;1.60;;;4.80;99.90;;;;;;4985294;28;20677;-86
2022/02/07 08:24:57;;;;;;;6.47;1.60;;;4.60;99.90;;;;;;4980414;28;20208;-86
2022/02/07 08:27:27;;;;;;;4.10;1.35;;;5.10;99.90;;;;;;4994811;28;20323;-87
2022/02/07 08:29:57;;;;;;;6.53;1.45;;;4.50;99.90;;;;;;4983920;28;20631;-87
2022/02/07 08:32:24;;;;;;;7.40;2.00;;;4.40;99.90;;;;;;4986811;28;20212;-87
2022/02/07 08:34:52;;;;;;;5.10;1.60;;;5.00;99.90;;;;;;4988283;28;20264;-86
2022/02/07 08:37:19;;;;;;;9.32;1.85;;;5.00;99.90;;;;;;4990651;28;20231;-87
2022/02/07 08:39:48;;;;;;;5.18;1.70;;;4.80;99.90;;;;;;4983571;28;20208;-87
2022/02/07 08:42:30;;;;;;;5.38;1.33;;;5.10;99.90;;;;;;4981310;28;20315;-87
2022/02/07 08:45:00;;;;;;;5.00;1.40;;;4.80;99.90;;;;;;4980850;28;20665;-87
2022/02/07 08:47:28;;;;;;;6.07;1.10;;;5.20;99.90;;;;;;4981766;28;20286;-86
2022/02/07 08:49:55;;;;;;;4.03;1.67;;;5.20;99.90;;;;;;4980800;28;20213;-86
2022/02/07 08:52:23;;;;;;;6.20;1.30;;;5.00;99.90;;;;;;4980664;28;20213;-86
2022/02/07 08:55:25;;;;;;;9.77;1.75;;;5.40;99.90;;;;;;4982178;28;20405;-88
2022/02/07 09:00:43;;;;;;;7.53;1.30;;;5.40;99.90;;;;;;4979416;28;20233;-86
2022/02/07 09:03:23;;;;;;;5.63;1.40;;;5.60;99.90;;;;;;4982702;28;20330;-85
2022/02/07 09:06:06;;;;;;;3.97;1.30;;;5.70;99.90;;;;;;4983582;28;20287;-86
2022/02/07 09:11:57;;;;;;;6.70;2.30;;;5.90;99.90;;;;;;4980706;28;20260;-86
2022/02/07 09:14:25;;;;;;;6.32;1.98;;;6.00;99.90;;;;;;4984455;28;20207;-86
2022/02/07 09:16:58;;;;;;;8.20;1.83;;;6.00;99.90;;;;;;4986551;28;20212;-87
2022/02/07 09:19:29;;;;;;;8.82;1.70;;;6.00;99.90;;;;;;4985262;28;20204;-88
2022/02/07 09:21:56;;;;;;;4.70;1.33;;;6.10;99.90;;;;;;4982464;28;20233;-87
2022/02/07 09:24:23;;;;;;;5.10;1.75;;;6.20;99.90;;;;;;4983382;28;20618;-86
2022/02/07 09:26:50;;;;;;;7.65;1.50;;;6.30;99.90;;;;;;4983868;28;20209;-87
2022/02/07 09:29:17;;;;;;;6.25;1.77;;;6.00;99.90;;;;;;4984018;28;20213;-87
2022/02/07 09:31:44;;;;;;;6.80;1.60;;;6.20;99.90;;;;;;4981283;28;20783;-83
2022/02/07 09:34:15;;;;;;;5.85;1.58;;;6.50;99.90;;;;;;4987803;28;20268;-84
2022/02/07 09:36:42;;;;;;;5.38;1.45;;;6.20;99.90;;;;;;4985835;28;20224;-86
2022/02/07 09:39:09;;;;;;;3.25;1.25;;;6.30;99.90;;;;;;4986029;28;20307;-84
2022/02/07 09:41:36;;;;;;;5.20;1.77;;;5.90;99.90;;;;;;4983838;28;20232;-83
2022/02/07 09:44:04;;;;;;;5.10;1.83;;;6.10;99.90;;;;;;4986137;28;20220;-85
2022/02/07 09:46:43;;;;;;;11.20;2.22;;;6.30;99.90;;;;;;4992901;28;20220;-85
2022/02/07 09:49:12;;;;;;;5.70;2.15;;;6.10;99.90;;;;;;4993118;28;20212;-85
2022/02/07 09:51:42;;;;;;;7.55;2.10;;;6.30;99.90;;;;;;4994321;28;20280;-85
2022/02/07 09:54:09;;;;;;;6.50;1.40;;;6.80;99.90;;;;;;4990686;28;20197;-85
2022/02/07 09:56:36;;;;;;;7.63;1.52;;;6.30;99.90;;;;;;4989802;28;20267;-85
2022/02/07 09:59:03;;;;;;;9.85;2.33;;;6.60;99.90;;;;;;4986320;28;20303;-85
2022/02/07 10:01:34;;;;;;;4.60;1.65;;;6.50;99.90;;;;;;4984397;28;20324;-85
2022/02/07 10:04:02;;;;;;;5.70;1.80;;;6.90;99.90;;;;;;4983329;28;20668;-85
2022/02/07 10:06:48;;;;;;;4.75;1.33;;;6.90;99.90;;;;;;4983878;28;20299;-87
2022/02/07 10:37:40;;;;;;;8.95;1.85;;;7.00;99.90;;;;;;4959906;29;20313;-90
2022/02/07 10:45:08;;;;;;;8.25;2.85;;;7.40;99.90;;;;;;1430211;23;20541;-89
2022/02/07 10:47:55;;;;;;;7.07;1.50;;;7.40;99.90;;;;;;4987204;28;20239;-90
2022/02/07 10:50:25;;;;;;;6.20;1.58;;;7.50;99.90;;;;;;5000730;28;20224;-89
2022/02/07 10:52:56;;;;;;;7.40;1.65;;;7.60;99.90;;;;;;4998445;28;20204;-89
2022/02/07 10:55:26;;;;;;;5.95;1.23;;;7.70;99.90;;;;;;4999526;28;20221;-89
2022/02/07 10:57:58;;;;;;;4.32;1.50;;;7.60;99.90;;;;;;4989087;28;20201;-89
2022/02/07 11:00:36;;;;;;;4.97;1.58;;;7.40;99.90;;;;;;4990250;28;20189;-89
2022/02/07 11:06:00;;;;;;;9.27;1.80;;;7.40;99.90;;;;;;4988089;28;20208;-90
2022/02/07 11:08:42;;;;;;;10.32;1.95;;;7.50;99.90;;;;;;4989644;28;20208;-89
2022/02/07 11:11:32;;;;;;;7.55;1.55;;;7.70;99.90;;;;;;4993622;28;20229;-88
2022/02/07 11:30:46;;;;;;;6.40;1.70;;;7.60;99.90;;;;;;4990928;28;20235;-89
2022/02/07 11:33:49;;;;;;;6.30;1.42;;;7.60;99.90;;;;;;4988183;28;20209;-88
2022/02/07 11:36:28;;;;;;;7.05;1.73;;;7.60;99.90;;;;;;4986944;28;20657;-90
2022/02/07 11:39:13;;;;;;;5.55;0.95;;;7.50;99.90;;;;;;4992849;28;20636;-90
2022/02/07 11:42:12;;;;;;;3.65;0.80;;;7.60;99.90;;;;;;4984743;28;20228;-89
2022/02/07 11:45:24;;;;;;;6.38;1.50;;;7.60;99.90;;;;;;4999181;28;20193;-88
2022/02/07 11:47:57;;;;;;;7.65;1.60;;;7.50;99.90;;;;;;4993064;28;20217;-90
2022/02/07 11:50:27;;;;;;;8.23;2.50;;;7.40;99.90;;;;;;4998687;28;20220;-90
2022/02/07 11:53:04;;;;;;;6.32;2.10;;;7.50;99.90;;;;;;4988365;28;20205;-89
2022/02/07 11:55:35;;;;;;;6.78;1.60;;;7.70;99.90;;;;;;4993631;28;20292;-88
2022/02/07 11:58:08;;;;;;;4.72;1.40;;;7.70;99.90;;;;;;4991575;28;20248;-89
2022/02/07 12:00:44;;;;;;;12.73;3.25;;;7.20;99.90;;;;;;4997547;28;20238;-89
2022/02/07 12:03:13;;;;;;;7.80;2.03;;;7.30;99.90;;;;;;4995985;28;20201;-89
2022/02/07 12:05:45;;;;;;;6.93;2.40;;;7.50;99.90;;;;;;4997884;28;20193;-89
2022/02/07 12:08:18;;;;;;;15.65;4.03;;;7.50;99.90;;;;;;4991080;28;20193;-89
2022/02/07 12:11:18;;;;;;;8.27;1.65;;;7.20;99.90;;;;;;4989386;28;20240;-90
2022/02/07 12:13:58;;;;;;;6.30;1.08;;;7.40;99.90;;;;;;4990819;28;20208;-89
2022/02/07 12:16:27;;;;;;;6.22;1.55;;;7.70;99.90;;;;;;4988223;28;20572;-89
2022/02/07 12:19:14;;;;;;;9.57;1.98;;;7.60;99.90;;;;;;4989222;28;20212;-90
2022/02/07 12:22:13;;;;;;;9.27;2.00;;;7.60;99.90;;;;;;4989079;28;20228;-90
2022/02/07 12:30:44;;;;;;;4.38;1.60;;;7.80;99.90;;;;;;4984815;28;20201;-89
2022/02/07 12:33:12;;;;;;;6.60;1.67;;;7.70;99.90;;;;;;4997649;28;20285;-88
2022/02/07 12:35:39;;;;;;;6.82;2.10;;;7.70;99.90;;;;;;4993520;28;20225;-90
2022/02/07 12:38:08;;;;;;;5.80;1.70;;;7.80;99.90;;;;;;4992202;28;20210;-89
2022/02/07 12:40:35;;;;;;;10.40;1.73;;;8.00;99.90;;;;;;4995772;28;20264;-89
2022/02/07 12:43:05;;;;;;;6.55;1.30;;;7.90;99.90;;;;;;4996831;28;20208;-89
2022/02/07 12:45:32;;;;;;;9.93;1.67;;;7.80;99.90;;;;;;4988115;28;20217;-89
2022/02/07 12:48:08;;;;;;;5.78;1.85;;;7.80;99.90;;;;;;4989172;28;20236;-88
2022/02/07 12:50:35;;;;;;;4.85;1.48;;;7.80;99.90;;;;;;4987833;28;20725;-89
2022/02/07 12:53:14;;;;;;;8.85;2.22;;;8.00;99.90;;;;;;4985552;28;20219;-90
2022/02/07 12:55:42;;;;;;;7.15;1.70;;;8.00;99.90;;;;;;4985394;28;20236;-90
2022/02/07 12:58:12;;;;;;;4.82;1.33;;;8.20;99.90;;;;;;4985528;28;20578;-88
2022/02/07 13:00:40;;;;;;;5.57;1.33;;;8.00;99.90;;;;;;4985013;28;20237;-89
2022/02/07 13:03:07;;;;;;;6.28;2.83;;;7.90;99.90;;;;;;4986996;28;20471;-90
2022/02/07 13:05:35;;;;;;;7.70;1.73;;;7.90;99.90;;;;;;4991994;28;20205;-91
2022/02/07 13:08:02;;;;;;;5.40;1.55;;;7.90;99.90;;;;;;4993640;28;20642;-90
2022/02/07 13:10:43;;;;;;;12.18;2.33;;;7.90;99.90;;;;;;4997581;28;20196;-90
2022/02/07 13:13:28;;;;;;;6.45;2.00;;;7.90;99.90;;;;;;4989800;28;20213;-90
2022/02/07 13:15:57;;;;;;;5.90;1.52;;;7.80;99.90;;;;;;4983325;28;20225;-91
2022/02/07 13:18:27;;;;;;;8.45;2.05;;;7.90;99.90;;;;;;4983478;28;20304;-90
2022/02/07 13:20:55;;;;;;;7.25;1.92;;;7.80;99.90;;;;;;4983883;28;20260;-90
2022/02/07 13:23:23;;;;;;;9.05;2.95;;;7.90;99.90;;;;;;4982831;28;20216;-90
2022/02/07 13:25:54;;;;;;;4.75;1.40;;;7.80;99.90;;;;;;4983333;28;20243;-91
2022/02/07 13:28:23;;;;;;;8.15;2.10;;;7.60;99.90;;;;;;4987441;28;20291;-89
2022/02/07 13:30:53;;;;;;;6.78;2.10;;;7.80;99.90;;;;;;4995823;28;20408;-90
2022/02/07 13:33:21;;;;;;;7.87;2.10;;;7.70;99.90;;;;;;4992869;28;20189;-89
2022/02/07 13:35:54;;;;;;;5.53;1.85;;;7.70;99.90;;;;;;4989922;28;20467;-90
2022/02/07 13:38:27;;;;;;;8.18;2.47;;;7.80;99.90;;;;;;4993494;28;20272;-90
2022/02/07 13:41:04;;;;;;;8.13;2.92;;;7.70;99.90;;;;;;4992937;28;20283;-90
2022/02/07 13:43:34;;;;;;;4.57;1.92;;;7.70;99.90;;;;;;4991849;28;20208;-90
2022/02/07 13:46:09;;;;;;;5.63;1.73;;;7.90;99.90;;;;;;4993091;28;20215;-92
2022/02/07 13:48:38;;;;;;;3.92;1.70;;;7.80;99.90;;;;;;4996996;28;20200;-92
2022/02/07 13:54:28;;;;;;;7.13;1.98;;;7.50;99.90;;;;;;5405316;23;20244;-89
2022/02/07 13:57:15;;;;;;;5.82;2.10;;;7.60;99.90;;;;;;4995123;28;20247;-91
2022/02/07 14:06:30;;;;;;;4.68;1.30;;;7.40;99.90;;;;;;4976007;28;20205;-92
2022/02/07 14:11:57;;;;;;;6.13;1.85;;;7.80;99.90;;;;;;4998365;28;20262;-91
2022/02/07 14:45:13;;;;;;;3.70;1.98;;;8.20;99.90;;;;;;4998297;28;20228;-90
2022/02/07 15:31:47;;;;;;;6.72;2.00;;;7.30;99.90;;;;;;4989627;28;20237;-90
2022/02/07 15:34:16;;;;;;;6.90;1.90;;;7.00;99.90;;;;;;4991949;28;20197;-89
2022/02/07 15:36:45;;;;;;;7.47;2.05;;;7.20;99.90;;;;;;4990820;28;20229;-91
2022/02/07 15:39:16;;;;;;;8.93;2.50;;;7.20;99.90;;;;;;4992863;28;20201;-90
2022/02/07 15:41:44;;;;;;;6.03;2.80;;;7.20;99.90;;;;;;4991436;28;20256;-90
2022/02/07 15:44:12;;;;;;;11.52;2.55;;;7.20;99.90;;;;;;4990034;28;20205;-90
2022/02/07 15:52:44;;;;;;;8.27;2.80;;;7.10;99.90;;;;;;5069344;23;20231;-91
2022/02/07 15:55:13;;;;;;;7.00;2.65;;;6.80;99.90;;;;;;4998759;28;20208;-92
2022/02/07 15:57:46;;;;;;;8.02;2.28;;;6.90;99.90;;;;;;4999341;28;20220;-92
2022/02/07 16:00:17;;;;;;;6.20;2.17;;;6.90;99.90;;;;;;4999186;28;20189;-91
2022/02/07 16:02:50;;;;;;;9.60;2.25;;;6.90;99.90;;;;;;4999231;28;20196;-91
2022/02/07 16:05:36;;;;;;;11.27;2.25;;;6.80;99.90;;;;;;4999377;28;20224;-91
2022/02/07 16:08:09;;;;;;;8.27;2.00;;;6.80;99.90;;;;;;4997238;28;20196;-92
2022/02/07 16:13:19;;;;;;;5.90;1.95;;;6.70;99.90;;;;;;5003503;28;20250;-86
2022/02/07 16:15:47;;;;;;;8.38;2.08;;;6.60;99.90;;;;;;5011978;28;20215;-85
2022/02/07 16:18:16;;;;;;;8.52;2.28;;;6.70;99.90;;;;;;5005713;28;20251;-84
2022/02/07 16:20:46;;;;;;;9.02;2.60;;;6.60;99.90;;;;;;5005498;28;20212;-85
2022/02/07 16:23:13;;;;;;;9.77;2.83;;;6.30;99.90;;;;;;4986902;28;20200;-85
2022/02/07 16:25:40;;;;;;;6.68;2.70;;;6.70;99.90;;;;;;4981355;28;20213;-85
2022/02/07 16:28:12;;;;;;;6.18;2.20;;;6.20;99.90;;;;;;4982363;28;20253;-86
2022/02/07 16:30:40;;;;;;;10.63;2.60;;;6.30;99.90;;;;;;4988539;28;20216;-86
2022/02/07 16:33:07;;;;;;;8.68;2.50;;;6.70;99.90;;;;;;4986657;28;20243;-85
2022/02/07 16:35:37;;;;;;;6.95;2.20;;;6.50;99.90;;;;;;4984135;28;20226;-87
2022/02/07 16:38:14;;;;;;;17.33;2.75;;;6.70;99.90;;;;;;4984700;28;20223;-87
2022/02/07 16:40:44;;;;;;;10.95;2.30;;;6.60;99.90;;;;;;4982150;28;20200;-86
2022/02/07 16:43:13;;;;;;;6.13;2.35;;;6.70;99.90;;;;;;4982744;28;20781;-86
2022/02/07 16:46:02;;;;;;;8.00;2.08;;;6.70;99.90;;;;;;4983701;28;20216;-86
2022/02/07 16:48:30;;;;;;;6.25;2.63;;;6.50;99.90;;;;;;4984778;28;20215;-84
2022/02/07 16:50:56;;;;;;;8.80;3.35;;;6.50;99.90;;;;;;4982498;28;20228;-86
2022/02/07 16:53:25;;;;;;;6.25;2.65;;;6.50;99.90;;;;;;4980459;28;20256;-86
2022/02/07 16:55:53;;;;;;;12.07;3.80;;;6.20;99.90;;;;;;4981788;28;20280;-86
2022/02/07 16:58:20;;;;;;;7.13;2.90;;;6.00;99.90;;;;;;4981761;28;20260;-86
2022/02/07 17:00:49;;;;;;;9.65;2.70;;;6.30;99.90;;;;;;4984012;28;20666;-84
2022/02/07 17:03:16;;;;;;;9.07;2.55;;;5.80;99.90;;;;;;4981640;28;20245;-85
2022/02/07 17:05:45;;;;;;;8.68;3.55;;;6.40;99.90;;;;;;4980844;28;20213;-86
2022/02/07 17:08:12;;;;;;;16.02;3.20;;;6.20;99.90;;;;;;4982832;28;20204;-85
2022/02/07 17:10:42;;;;;;;6.40;2.65;;;6.20;99.90;;;;;;4986044;28;20224;-85
2022/02/07 17:13:09;;;;;;;9.70;4.20;;;6.20;99.90;;;;;;4993165;28;20205;-85
2022/02/07 17:15:36;;;;;;;8.38;2.80;;;6.10;99.90;;;;;;4985973;28;20201;-84
2022/02/07 17:18:04;;;;;;;6.45;3.40;;;6.30;99.90;;;;;;4981876;28;20235;-86
2022/02/07 17:20:31;;;;;;;9.68;3.60;;;6.20;99.90;;;;;;4985253;28;20256;-87
2022/02/07 17:22:58;;;;;;;9.40;3.67;;;5.90;99.90;;;;;;4992745;28;20260;-85
2022/02/07 17:25:25;;;;;;;19.15;5.22;;;5.70;99.90;;;;;;4984977;28;20213;-85
2022/02/07 17:27:56;;;;;;;20.08;3.45;;;5.70;99.90;;;;;;4982234;28;20267;-85
2022/02/07 17:30:23;;;;;;;10.35;3.33;;;6.10;99.90;;;;;;4982263;28;20208;-86
2022/02/07 17:32:50;;;;;;;8.88;3.50;;;6.10;99.90;;;;;;4982048;28;20785;-86
2022/02/07 17:35:17;;;;;;;8.05;3.03;;;5.70;99.90;;;;;;4981939;28;20211;-86
2022/02/07 17:37:45;;;;;;;8.18;3.58;;;6.00;99.90;;;;;;4982459;28;20312;-85
2022/02/07 17:40:16;;;;;;;13.13;4.18;;;5.70;99.90;;;;;;4983390;28;20209;-85
2022/02/07 17:42:44;;;;;;;8.20;3.72;;;6.00;99.90;;;;;;4987992;28;20263;-85
2022/02/07 17:45:15;;;;;;;11.45;2.50;;;6.00;99.90;;;;;;4984361;28;20226;-85
2022/02/07 17:47:43;;;;;;;7.32;3.25;;;6.10;99.90;;;;;;4991116;28;20189;-85
2022/02/07 17:50:11;;;;;;;12.65;5.28;;;6.10;99.90;;;;;;4992362;28;20284;-85
2022/02/07 17:52:38;;;;;;;14.82;4.07;;;6.20;99.90;;;;;;4989111;28;20260;-85
2022/02/07 17:55:08;;;;;;;13.05;3.65;;;6.20;99.90;;;;;;4984164;28;20213;-85
2022/02/07 17:57:35;;;;;;;8.23;3.63;;;6.00;99.90;;;;;;4986670;28;20615;-86
2022/02/07 18:00:06;;;;;;;9.02;4.20;;;5.60;99.90;;;;;;4982524;28;20198;-86
2022/02/07 18:02:35;;;;;;;11.60;3.58;;;6.00;99.90;;;;;;4983915;28;20676;-86
2022/02/07 18:05:04;;;;;;;10.90;4.07;;;6.10;99.90;;;;;;4982832;28;20201;-86
2022/02/07 18:07:38;;;;;;;10.23;4.03;;;5.90;99.90;;;;;;4983795;28;20213;-86
2022/02/07 18:10:06;;;;;;;10.23;4.18;;;6.00;99.90;;;;;;4983001;28;20599;-87
2022/02/07 18:12:35;;;;;;;8.68;4.05;;;6.10;99.90;;;;;;4980612;28;20237;-86
2022/02/07 18:15:05;;;;;;;9.07;3.88;;;5.80;99.90;;;;;;4984094;28;20213;-86
2022/02/07 18:17:35;;;;;;;7.75;3.33;;;5.20;99.90;;;;;;4988573;28;20247;-85
2022/02/07 18:20:20;;;;;;;11.02;4.40;;;5.40;99.90;;;;;;4988120;28;20216;-86
2022/02/07 18:22:50;;;;;;;9.63;4.00;;;5.60;99.90;;;;;;4986459;28;20229;-86
2022/02/07 18:25:18;;;;;;;10.60;4.47;;;5.50;99.90;;;;;;4985806;28;20217;-85
2022/02/07 18:27:48;;;;;;;8.13;3.40;;;5.50;99.90;;;;;;4996520;28;20197;-84
2022/02/07 18:30:17;;;;;;;9.07;3.42;;;5.40;99.90;;;;;;4987277;28;20220;-85
2022/02/07 18:32:47;;;;;;;14.05;4.60;;;5.20;99.90;;;;;;4983197;28;20243;-85
2022/02/07 18:35:16;;;;;;;9.73;3.70;;;5.10;99.90;;;;;;4985018;28;20213;-85
2022/02/07 18:37:45;;;;;;;10.10;4.00;;;5.60;99.90;;;;;;4985502;28;20225;-86
2022/02/07 18:40:23;;;;;;;12.38;4.70;;;5.30;99.90;;;;;;4986240;28;20208;-86
2022/02/07 18:42:51;;;;;;;7.88;4.45;;;5.60;99.90;;;;;;4987422;28;20227;-86
2022/02/07 18:45:23;;;;;;;9.32;4.25;;;5.60;99.90;;;;;;4984496;28;20240;-86
2022/02/07 18:47:54;;;;;;;15.18;5.63;;;5.50;99.90;;;;;;4986241;28;20218;-85
2022/02/07 18:50:21;;;;;;;13.60;5.82;;;5.20;99.90;;;;;;4985395;28;20208;-85
2022/02/07 18:52:52;;;;;;;15.82;6.55;;;5.30;99.90;;;;;;4985557;28;20669;-85
2022/02/07 18:55:21;;;;;;;10.45;4.65;;;5.40;99.90;;;;;;4986386;28;20291;-86
2022/02/07 18:57:58;;;;;;;11.75;4.80;;;5.50;99.90;;;;;;4984843;28;20248;-84
2022/02/07 19:00:27;;;;;;;10.35;5.10;;;5.60;99.90;;;;;;4986215;28;20193;-85
2022/02/07 19:03:13;;;;;;;10.85;4.93;;;5.50;99.90;;;;;;4985604;28;20240;-85
2022/02/07 19:06:01;;;;;;;9.75;5.20;;;5.20;99.90;;;;;;4988497;28;20209;-85
2022/02/07 19:08:30;;;;;;;9.63;4.72;;;5.00;99.90;;;;;;4987951;28;20236;-86
2022/02/07 19:11:02;;;;;;;11.55;4.30;;;5.20;99.90;;;;;;4986922;28;20666;-85
2022/02/07 19:13:33;;;;;;;14.50;5.47;;;5.20;99.90;;;;;;4984352;28;20216;-85
2022/02/07 19:16:00;;;;;;;8.55;5.07;;;5.10;99.90;;;;;;4987869;28;20216;-86
2022/02/07 19:18:33;;;;;;;9.35;4.90;;;4.80;99.90;;;;;;4990992;28;20240;-86
2022/02/07 19:21:05;;;;;;;16.83;6.35;;;5.20;99.90;;;;;;4991483;28;20522;-85
2022/02/07 19:23:36;;;;;;;12.32;4.40;;;4.80;99.90;;;;;;4992178;28;20201;-85